createdAt,value
2022-10-01T00:01:15.740Z,83.78
2022-10-01T00:06:23.056Z,84.03
2022-10-01T00:11:27.399Z,84.23
2022-10-01T00:16:32.599Z,84.24
2022-10-01T00:21:36.830Z,84.12
2022-10-01T00:26:43.477Z,84.15
2022-10-01T00:31:47.439Z,83.93
2022-10-01T00:36:51.142Z,83.96
2022-10-01T00:41:55.158Z,84.17
2022-10-01T00:47:17.101Z,84.27
2022-10-01T00:52:29.293Z,84.39
2022-10-01T00:57:34.950Z,84.49
2022-10-01T01:02:39.069Z,84.50
2022-10-01T01:07:47.859Z,84.25
2022-10-01T01:13:39.143Z,84.22
2022-10-01T01:19:13.234Z,84.43
2022-10-01T01:24:58.175Z,84.60
2022-10-01T01:30:21.150Z,84.46
2022-10-01T01:35:35.467Z,84.54
2022-10-01T01:40:43.639Z,84.34
2022-10-01T01:45:51.732Z,84.48
2022-10-01T01:51:05.376Z,84.75
2022-10-01T01:56:09.326Z,84.50
2022-10-01T02:01:36.806Z,84.46
2022-10-01T02:07:15.731Z,84.40
2022-10-01T02:13:00.444Z,84.35
2022-10-01T02:18:32.831Z,84.21
2022-10-01T02:23:53.809Z,84.39
2022-10-01T02:29:04.539Z,84.39
2022-10-01T02:34:12.822Z,84.39
2022-10-01T02:39:20.771Z,84.71
2022-10-01T02:44:38.510Z,84.83
2022-10-01T02:49:42.382Z,84.86
2022-10-01T02:55:06.237Z,84.52
2022-10-01T03:00:15.749Z,84.11
2022-10-01T03:05:21.019Z,83.81
2022-10-01T03:10:24.760Z,83.68
2022-10-01T03:15:29.516Z,83.90
2022-10-01T03:20:33.342Z,83.79
2022-10-01T03:25:37.263Z,83.43
2022-10-01T03:30:40.985Z,83.42
2022-10-01T03:35:44.801Z,83.25
2022-10-01T03:40:48.734Z,83.18
2022-10-01T03:45:52.483Z,83.07
2022-10-01T03:50:59.298Z,82.97
2022-10-01T03:56:05.332Z,82.97
2022-10-01T04:01:09.153Z,83.19
2022-10-01T04:06:13.551Z,83.43
2022-10-01T04:11:17.260Z,83.54
2022-10-01T04:16:21.247Z,83.76
2022-10-01T04:21:25.294Z,83.68
2022-10-01T04:26:30.117Z,84.03
2022-10-01T04:31:35.747Z,84.24
2022-10-01T04:36:40.126Z,84.29
2022-10-01T04:41:43.812Z,84.32
2022-10-01T04:46:47.799Z,84.54
2022-10-01T04:51:51.484Z,84.62
2022-10-01T04:56:55.418Z,84.76
2022-10-01T05:01:59.293Z,84.93
2022-10-01T05:07:03.265Z,85.28
2022-10-01T05:12:08.631Z,85.82
2022-10-01T05:17:12.453Z,86.08
2022-10-01T05:22:17.202Z,85.85
2022-10-01T05:27:21.021Z,85.51
2022-10-01T05:32:25.039Z,85.28
2022-10-01T05:37:29.122Z,84.67
2022-10-01T05:42:32.801Z,84.36
2022-10-01T05:47:36.523Z,84.23
2022-10-01T05:52:41.784Z,84.07
2022-10-01T05:57:45.504Z,83.71
2022-10-01T06:02:53.618Z,83.88
2022-10-01T06:07:58.087Z,83.71
2022-10-01T06:13:04.765Z,83.70
2022-10-01T06:18:11.501Z,83.37
2022-10-01T06:23:15.896Z,82.78
2022-10-01T06:28:20.089Z,82.54
2022-10-01T06:33:24.465Z,81.96
2022-10-01T06:38:28.286Z,81.50
2022-10-01T06:43:34.165Z,81.04
2022-10-01T06:48:37.983Z,80.93
2022-10-01T06:53:42.020Z,79.99
2022-10-01T06:58:45.733Z,78.93
2022-10-01T07:03:49.665Z,78.30
2022-10-01T07:08:53.411Z,77.14
2022-10-01T07:13:58.258Z,75.42
2022-10-01T07:19:02.673Z,74.67
2022-10-01T07:24:07.106Z,73.56
2022-10-01T07:29:11.363Z,73.68
2022-10-01T07:34:16.599Z,73.35
2022-10-01T07:39:45.615Z,71.13
2022-10-01T07:44:49.444Z,70.51
2022-10-01T07:49:58.470Z,69.93
2022-10-01T07:55:03.134Z,68.32
2022-10-01T08:00:10.046Z,68.74
2022-10-01T08:05:18.386Z,67.96
2022-10-01T08:10:23.646Z,66.50
2022-10-01T08:15:29.193Z,65.93
2022-10-01T08:20:33.945Z,66.08
2022-10-01T08:31:22.098Z,61.92
2022-10-01T08:36:31.453Z,62.02
2022-10-01T08:42:20.160Z,62.33
2022-10-01T08:47:36.404Z,60.81
2022-10-01T08:52:55.450Z,58.73
2022-10-01T08:58:05.137Z,59.13
2022-10-01T09:03:15.326Z,58.19
2022-10-01T09:08:46.455Z,56.47
2022-10-01T09:14:26.232Z,56.53
2022-10-01T09:19:41.154Z,54.86
2022-10-01T09:24:55.562Z,55.44
2022-10-01T09:30:16.957Z,53.90
2022-10-01T09:35:48.189Z,52.72
2022-10-01T09:40:55.692Z,52.06
2022-10-01T09:46:00.363Z,51.26
2022-10-01T09:51:40.249Z,50.16
2022-10-01T09:57:11.941Z,49.41
2022-10-01T10:02:25.074Z,50.44
2022-10-01T10:07:32.919Z,51.15
2022-10-01T10:12:37.400Z,49.72
2022-10-01T10:17:46.739Z,49.59
2022-10-01T10:22:50.872Z,49.19
2022-10-01T10:27:57.240Z,48.44
2022-10-01T10:33:08.501Z,47.78
2022-10-01T10:38:22.725Z,49.35
2022-10-01T10:43:34.831Z,47.78
2022-10-01T10:48:50.557Z,48.52
2022-10-01T10:53:55.502Z,48.17
2022-10-01T10:59:11.093Z,47.81
2022-10-01T11:04:44.790Z,47.22
2022-10-01T11:10:08.703Z,47.17
2022-10-01T11:15:36.999Z,45.93
2022-10-01T11:21:11.655Z,45.99
2022-10-01T11:26:31.534Z,45.76
2022-10-01T11:31:59.986Z,45.12
2022-10-01T11:37:29.081Z,45.98
2022-10-01T11:42:38.464Z,45.73
2022-10-01T11:47:53.149Z,47.26
2022-10-01T11:53:20.080Z,48.39
2022-10-01T11:58:58.138Z,47.75
2022-10-01T12:04:26.626Z,47.31
2022-10-01T12:09:58.428Z,48.47
2022-10-01T12:15:32.119Z,49.62
2022-10-01T12:21:01.173Z,50.60
2022-10-01T12:26:31.610Z,51.72
2022-10-01T12:32:00.597Z,51.51
2022-10-01T12:37:39.445Z,51.68
2022-10-01T12:43:06.520Z,51.49
2022-10-01T12:48:48.190Z,52.13
2022-10-01T12:54:21.709Z,52.06
2022-10-01T12:59:44.944Z,52.94
2022-10-01T13:05:28.580Z,54.03
2022-10-01T13:11:13.469Z,54.37
2022-10-01T13:16:50.201Z,54.51
2022-10-01T13:22:19.502Z,54.69
2022-10-01T13:27:42.895Z,55.29
2022-10-01T13:32:58.878Z,55.10
2022-10-01T13:38:29.839Z,55.50
2022-10-01T13:43:36.180Z,55.17
2022-10-01T13:48:49.305Z,54.83
2022-10-01T13:54:03.475Z,53.54
2022-10-01T13:59:37.064Z,52.87
2022-10-01T14:04:44.410Z,52.38
2022-10-01T14:09:59.959Z,53.13
2022-10-01T14:15:41.454Z,52.54
2022-10-01T14:21:30.953Z,52.29
2022-10-01T14:27:09.290Z,53.08
2022-10-01T14:32:28.985Z,54.19
2022-10-01T14:37:40.112Z,55.17
2022-10-01T14:42:45.127Z,56.74
2022-10-01T14:48:02.785Z,57.84
2022-10-01T14:53:19.528Z,58.69
2022-10-01T14:59:21.304Z,59.71
2022-10-01T15:04:28.666Z,60.66
2022-10-01T15:09:35.273Z,60.82
2022-10-01T15:14:44.025Z,61.30
2022-10-01T15:19:54.207Z,61.90
2022-10-01T15:25:02.728Z,62.53
2022-10-01T15:30:17.204Z,62.87
2022-10-01T15:35:34.165Z,63.68
2022-10-01T15:40:43.967Z,64.01
2022-10-01T15:46:18.416Z,64.47
2022-10-01T15:51:29.592Z,65.33
2022-10-01T15:56:36.754Z,65.90
2022-10-01T16:01:44.888Z,66.52
2022-10-01T16:06:55.986Z,67.10
2022-10-01T16:12:07.419Z,67.85
2022-10-01T16:17:20.306Z,68.35
2022-10-01T16:22:32.143Z,69.02
2022-10-01T16:27:54.021Z,69.36
2022-10-01T16:33:09.056Z,69.76
2022-10-01T16:38:36.238Z,70.17
2022-10-01T16:44:45.501Z,70.29
2022-10-01T16:51:16.757Z,70.58
2022-10-01T17:05:32.138Z,70.84
2022-10-01T17:10:42.304Z,71.05
2022-10-01T17:15:49.385Z,71.46
2022-10-01T17:20:53.533Z,71.73
2022-10-01T17:25:57.855Z,72.29
2022-10-01T17:31:03.001Z,72.44
2022-10-01T17:36:10.864Z,72.57
2022-10-01T17:41:15.378Z,72.89
2022-10-01T17:46:20.348Z,73.17
2022-10-01T17:51:24.409Z,73.28
2022-10-01T17:56:33.330Z,73.32
2022-10-01T18:01:37.542Z,73.58
2022-10-01T18:06:42.444Z,73.82
2022-10-01T18:11:46.613Z,73.99
2022-10-01T18:16:51.697Z,74.20
2022-10-01T18:22:15.039Z,74.43
2022-10-01T18:28:34.277Z,74.64
2022-10-01T18:34:06.490Z,74.65
2022-10-01T18:39:48.050Z,75.06
2022-10-01T18:45:03.885Z,75.43
2022-10-01T18:50:37.678Z,75.50
2022-10-01T18:56:17.654Z,75.60
2022-10-01T19:01:48.621Z,75.92
2022-10-01T19:07:35.460Z,76.14
2022-10-01T19:12:50.377Z,76.38
2022-10-01T19:22:03.437Z,76.34
2022-10-01T19:27:58.059Z,76.44
2022-10-01T19:33:15.667Z,76.79
2022-10-01T19:38:40.390Z,76.92
2022-10-01T19:44:30.400Z,77.25
2022-10-01T19:49:39.793Z,77.63
2022-10-01T19:54:59.556Z,77.71
2022-10-01T20:00:18.680Z,78.05
2022-10-01T20:05:38.540Z,78.54
2022-10-01T20:10:55.136Z,78.58
2022-10-01T20:16:41.523Z,79.00
2022-10-01T20:21:51.342Z,79.05
2022-10-01T20:27:13.285Z,79.56
2022-10-01T20:32:37.061Z,81.19
2022-10-01T20:38:11.741Z,82.97
2022-10-01T20:43:37.355Z,83.54
2022-10-01T20:48:52.714Z,83.40
2022-10-01T20:54:10.999Z,83.50
2022-10-01T20:59:30.354Z,83.49
2022-10-01T21:04:41.362Z,83.67
2022-10-01T21:09:50.534Z,83.79
2022-10-01T21:14:57.301Z,84.01
2022-10-01T21:20:48.258Z,84.24
2022-10-01T21:26:15.837Z,84.07
2022-10-01T21:31:42.141Z,83.86
2022-10-01T21:36:56.297Z,84.05
2022-10-01T21:42:11.964Z,84.05
2022-10-01T21:48:03.696Z,84.35
2022-10-01T21:53:32.944Z,84.46
2022-10-01T21:58:59.208Z,84.43
2022-10-01T22:04:35.792Z,84.59
2022-10-01T22:10:03.148Z,85.06
2022-10-01T22:15:30.503Z,85.29
2022-10-01T22:20:36.295Z,85.36
2022-10-01T22:25:58.054Z,85.64
2022-10-01T22:31:07.080Z,85.94
2022-10-01T22:37:02.419Z,86.11
2022-10-01T22:42:21.231Z,86.26
2022-10-01T22:47:43.138Z,86.60
2022-10-01T22:53:11.974Z,86.97
2022-10-01T22:59:09.201Z,87.40
2022-10-01T23:04:59.442Z,87.64
2022-10-01T23:10:10.967Z,87.90
2022-10-01T23:15:40.272Z,87.75
2022-10-01T23:21:15.633Z,87.56
2022-10-01T23:26:40.954Z,87.43
2022-10-01T23:32:19.494Z,87.68
2022-10-01T23:38:03.779Z,87.91
2022-10-01T23:43:24.585Z,87.96
2022-10-01T23:48:48.805Z,88.11
2022-10-01T23:54:19.865Z,88.18
2022-10-01T23:59:50.976Z,87.82
